»·PEaware :: N946S KPHX-P20

N946S :: KPHX-P20

FLIGHT INFORMATION

Flight Status: Arrived
Operator: Privately registered:
United States
More flights under this callsign
Pilot: Ethan S. (29221)
Aircraft: SOCATA TBM-900
(TBM9)
More flights by this aircraft type
Origin: KPHX Phoenix Sky Harbor Intl
United States
Destination: P20 Avi Suquilla
United States
More flights between these airports :: More routes between these airports
Route:
File this flight plan on PilotEdge
Remarks:
Altitude:
(Current/Filed)
8,500ft
Speed:
(Current/Filed)
270kts
Departed: 09-Oct-20 12:37 PM
Arrived: 09-Oct-20 01:15 PM
Distance/Time
Traveled:
121nm/0:38
Distance/Time
To Go:
Arrived

Flight Plot

Page will automatically refresh every two minutes.

Flight plan parsing failed; only flown route is shown


Map Options




Map Legend


Flown Route
Filed Route
Departure Airport
Arrival Airport
Navaid (VOR, NDB)
Fix

Horizontal Profiles

Position Reports

Time Latitude Longitude Heading Altitude Ground
Speed
09-Oct-20 12:27 33.425628 -112.020783 179 1112ft 0kts
09-Oct-20 12:28 33.425627 -112.020783 179 1112ft 0kts
09-Oct-20 12:29 33.425628 -112.020783 179 1112ft 0kts
09-Oct-20 12:30 33.425628 -112.020783 179 1112ft 0kts
09-Oct-20 12:31 33.425628 -112.020783 179 1112ft 0kts
09-Oct-20 12:32 33.425324 -112.021355 275 1112ft 12kts
09-Oct-20 12:33 33.427760 -112.021568 269 1112ft 10kts
09-Oct-20 12:34 33.427765 -112.025704 270 1111ft 10kts
09-Oct-20 12:35 33.428214 -112.026916 359 1109ft 6kts
09-Oct-20 12:36 33.428736 -112.008564 90 1343ft 122kts
09-Oct-20 12:37 33.417222 -111.967085 139 3191ft 139kts
09-Oct-20 12:38 33.386488 -111.936583 140 5092ft 143kts
09-Oct-20 12:39 33.345661 -111.913867 212 5540ft 204kts
09-Oct-20 12:40 33.309837 -111.972747 235 5510ft 213kts
09-Oct-20 12:41 33.295579 -112.032597 270 7307ft 150kts
09-Oct-20 12:42 33.296239 -112.087527 270 8583ft 204kts
09-Oct-20 12:43 33.297288 -112.167934 270 8520ft 241kts
09-Oct-20 12:44 33.298616 -112.249328 270 8522ft 232kts
09-Oct-20 12:45 33.300254 -112.329193 270 8526ft 230kts
09-Oct-20 12:46 33.301848 -112.408404 270 8524ft 230kts
09-Oct-20 12:47 33.303156 -112.488233 270 8521ft 230kts
09-Oct-20 12:48 33.318256 -112.565643 291 8514ft 230kts
09-Oct-20 12:49 33.346162 -112.638512 295 8529ft 242kts
09-Oct-20 12:50 33.377220 -112.717740 294 8520ft 257kts
09-Oct-20 12:51 33.409304 -112.799670 294 8518ft 259kts
09-Oct-20 12:52 33.441476 -112.882013 294 8517ft 262kts
09-Oct-20 12:53 33.474103 -112.965719 294 8518ft 266kts
09-Oct-20 12:54 33.506075 -113.047884 292 8516ft 252kts
09-Oct-20 12:55 33.536837 -113.127293 292 8517ft 248kts
09-Oct-20 12:56 33.567173 -113.205710 292 8517ft 247kts
09-Oct-20 12:57 33.597899 -113.285320 292 8517ft 246kts
09-Oct-20 12:58 33.628700 -113.365312 292 8517ft 246kts
09-Oct-20 12:59 33.659697 -113.446009 292 8517ft 246kts
09-Oct-20 13:00 33.690584 -113.526607 292 8517ft 246kts
09-Oct-20 13:01 33.721117 -113.606476 291 8505ft 247kts
09-Oct-20 13:02 33.751820 -113.686984 291 8496ft 247kts
09-Oct-20 13:03 33.782847 -113.768635 292 8485ft 260kts
09-Oct-20 13:04 33.815430 -113.854380 292 8483ft 269kts
09-Oct-20 13:05 33.848015 -113.940479 291 8410ft 273kts
09-Oct-20 13:06 33.887779 -114.027288 327 6952ft 281kts
09-Oct-20 13:07 33.949115 -114.081824 321 5918ft 256kts
09-Oct-20 13:08 34.006468 -114.134844 322 4672ft 243kts
09-Oct-20 13:09 34.061965 -114.186242 321 2962ft 231kts
09-Oct-20 13:10 34.111017 -114.231735 320 2462ft 195kts
09-Oct-20 13:11 34.151114 -114.267119 326 2438ft 149kts
09-Oct-20 13:12 34.183345 -114.272297 82 952ft 105kts
09-Oct-20 13:13 34.166435 -114.257771 205 725ft 93kts
09-Oct-20 13:14 34.149979 -114.267737 206 454ft 27kts
09-Oct-20 13:15 34.142476 -114.272364 270 448ft 7kts
09-Oct-20 13:16 34.144873 -114.274715 296 446ft 16kts
09-Oct-20 13:17 34.149743 -114.272664 27 447ft 26kts
09-Oct-20 13:18 34.152886 -114.271733 333 446ft 6kts
09-Oct-20 13:19 34.153326 -114.271195 117 447ft 0kts
09-Oct-20 13:20 34.153326 -114.271195 117 447ft 0kts

Navigation Log

Ident Type
Flight plan parsing failed, navigation log unavailable